Time;durP1;ratioP1;P1;durP2;ratioP2;P2;SDS_P1;SDS_P2;PMS_P1;PMS_P2;Temp;Humidity;BMP_temperature;BMP_pressure;BME280_temperature;BME280_humidity;BME280_pressure;Samples;Min_cycle;Max_cycle;Signal;HPM_P1;HPM_P2
2021/06/01 00:01:48;;;;;;;3.45;2.30;;;13.90;99.90;;;;;;5017254;28;20065;-65
2021/06/01 00:04:17;;;;;;;3.08;2.10;;;14.00;99.90;;;;;;5033490;28;20034;-65
2021/06/01 00:06:44;;;;;;;3.95;2.25;;;14.10;99.90;;;;;;5034923;28;20029;-65
2021/06/01 00:09:17;;;;;;;4.50;2.35;;;14.10;99.90;;;;;;5034713;28;20398;-66
2021/06/01 00:11:44;;;;;;;5.22;2.40;;;14.30;99.90;;;;;;5033581;28;20056;-65
2021/06/01 00:14:11;;;;;;;3.45;2.33;;;14.30;99.90;;;;;;5034686;28;20025;-65
2021/06/01 00:16:38;;;;;;;4.75;2.30;;;13.90;99.90;;;;;;5034705;28;20107;-65
2021/06/01 00:19:08;;;;;;;4.68;2.55;;;13.80;99.90;;;;;;5033279;28;20079;-65
2021/06/01 00:21:39;;;;;;;6.00;2.47;;;13.60;99.90;;;;;;5033518;28;20032;-65
2021/06/01 00:24:08;;;;;;;5.13;2.88;;;13.50;99.90;;;;;;5033103;28;20048;-65
2021/06/01 00:26:36;;;;;;;4.38;2.60;;;13.40;99.90;;;;;;5034694;28;20029;-65
2021/06/01 00:29:02;;;;;;;4.28;2.25;;;13.50;99.90;;;;;;5032756;28;20052;-65
2021/06/01 00:31:28;;;;;;;4.35;2.28;;;13.40;99.90;;;;;;5033138;28;20572;-65
2021/06/01 00:33:54;;;;;;;4.18;2.40;;;13.30;99.90;;;;;;5034138;28;20038;-65
2021/06/01 00:36:19;;;;;;;2.95;1.80;;;13.40;99.90;;;;;;5033107;28;20036;-65
2021/06/01 00:38:45;;;;;;;3.63;2.33;;;13.40;99.90;;;;;;5034175;28;20418;-65
2021/06/01 00:41:11;;;;;;;4.20;2.30;;;13.60;99.90;;;;;;5034233;28;20029;-65
2021/06/01 00:43:37;;;;;;;4.60;2.15;;;13.80;99.90;;;;;;5032896;28;20045;-65
2021/06/01 00:46:03;;;;;;;3.47;2.25;;;13.90;99.90;;;;;;5034147;28;20029;-65
2021/06/01 00:48:29;;;;;;;3.30;2.20;;;13.80;99.90;;;;;;5032810;28;20079;-65
2021/06/01 00:50:55;;;;;;;3.10;2.00;;;13.80;99.90;;;;;;5033888;28;20033;-66
2021/06/01 00:53:21;;;;;;;5.03;2.50;;;13.60;99.90;;;;;;5032568;28;20496;-65
2021/06/01 00:55:47;;;;;;;5.50;2.67;;;13.50;99.90;;;;;;5032845;28;20037;-65
2021/06/01 00:58:13;;;;;;;2.97;2.15;;;13.00;99.90;;;;;;5033961;28;20024;-65
2021/06/01 01:00:54;;;;;;;4.35;2.70;;;13.10;99.90;;;;;;5032503;28;20037;-65
2021/06/01 01:03:19;;;;;;;5.38;2.22;;;12.90;99.90;;;;;;5033921;28;20036;-65
2021/06/01 01:05:49;;;;;;;6.03;2.78;;;12.90;99.90;;;;;;5033770;28;20021;-65
2021/06/01 01:08:44;;;;;;;4.35;2.50;;;12.90;99.90;;;;;;5032572;28;20044;-65
2021/06/01 01:11:33;;;;;;;3.65;2.40;;;12.90;99.90;;;;;;5033644;28;20033;-65
2021/06/01 01:14:47;;;;;;;5.75;2.45;;;12.70;99.90;;;;;;5033592;28;20065;-65
2021/06/01 01:17:30;;;;;;;4.20;2.60;;;12.50;99.90;;;;;;5000278;28;20026;-64
2021/06/01 01:20:06;;;;;;;5.18;2.40;;;12.50;99.90;;;;;;4995926;28;20041;-64
2021/06/01 01:22:35;;;;;;;3.75;2.42;;;12.40;99.90;;;;;;5011246;28;20049;-65
2021/06/01 01:25:18;;;;;;;5.38;2.88;;;12.40;99.90;;;;;;4994799;28;20045;-65
2021/06/01 01:28:01;;;;;;;7.32;2.67;;;12.40;99.90;;;;;;4995876;28;20160;-66
2021/06/01 01:30:51;;;;;;;4.38;2.70;;;12.20;99.90;;;;;;4995307;28;20084;-65
2021/06/01 01:33:32;;;;;;;3.80;2.47;;;12.30;99.90;;;;;;5011071;28;20399;-65
2021/06/01 01:36:04;;;;;;;4.38;2.78;;;12.20;99.90;;;;;;4994762;28;20046;-65
2021/06/01 01:38:34;;;;;;;4.82;2.88;;;12.40;99.90;;;;;;5011077;28;20077;-65
2021/06/01 01:41:12;;;;;;;4.07;2.70;;;12.30;99.90;;;;;;4994829;28;20048;-65
2021/06/01 01:43:48;;;;;;;4.35;2.60;;;12.40;99.90;;;;;;4994951;28;20049;-65
2021/06/01 01:46:28;;;;;;;6.10;3.30;;;12.30;99.90;;;;;;4979049;28;20534;-65
2021/06/01 01:48:59;;;;;;;26.58;15.63;;;12.10;99.90;;;;;;5012406;28;20128;-65
2021/06/01 01:51:35;;;;;;;68.82;35.38;;;12.10;99.90;;;;;;5031695;28;20030;-65
2021/06/01 01:54:07;;;;;;;7.00;4.32;;;12.10;99.90;;;;;;5031501;28;20034;-66
2021/06/01 01:56:38;;;;;;;4.18;2.63;;;12.00;99.90;;;;;;5032768;28;20386;-65
2021/06/01 01:59:19;;;;;;;5.05;2.67;;;11.90;99.90;;;;;;5031600;28;20036;-65
2021/06/01 02:01:49;;;;;;;5.70;2.90;;;11.90;99.90;;;;;;5031891;28;20043;-64
2021/06/01 02:04:33;;;;;;;5.63;3.10;;;11.80;99.90;;;;;;5031580;28;20791;-65
2021/06/01 02:06:59;;;;;;;5.22;2.60;;;11.80;99.90;;;;;;5030952;28;20584;-66
2021/06/01 02:09:26;;;;;;;4.90;2.55;;;11.80;99.90;;;;;;5032690;28;20069;-65
2021/06/01 02:11:52;;;;;;;4.88;2.47;;;11.80;99.90;;;;;;5032710;28;20037;-66
2021/06/01 02:14:20;;;;;;;5.53;3.00;;;11.80;99.90;;;;;;5032780;28;20040;-66
2021/06/01 02:16:46;;;;;;;4.68;2.97;;;11.80;99.90;;;;;;5031137;28;20029;-66
2021/06/01 02:19:15;;;;;;;3.97;2.53;;;12.00;99.90;;;;;;5031512;28;20041;-66
2021/06/01 02:24:24;;;;;;;4.63;2.72;;;12.10;99.90;;;;;;5031169;28;20045;-66
2021/06/01 02:27:30;;;;;;;4.70;2.90;;;12.00;99.90;;;;;;5032205;28;20120;-66
2021/06/01 02:30:02;;;;;;;4.70;2.67;;;12.10;99.90;;;;;;5031102;28;20120;-66
2021/06/01 02:32:49;;;;;;;5.28;2.97;;;12.00;99.90;;;;;;5032641;28;20120;-66
2021/06/01 02:35:19;;;;;;;4.50;2.88;;;12.00;99.90;;;;;;5031118;28;20048;-66
2021/06/01 02:37:49;;;;;;;3.83;2.27;;;12.00;99.90;;;;;;5032592;28;20034;-66
2021/06/01 02:40:19;;;;;;;3.85;2.60;;;11.90;99.90;;;;;;5030851;28;20450;-66
2021/06/01 02:42:46;;;;;;;4.88;2.70;;;11.80;99.90;;;;;;5032556;28;20036;-66
2021/06/01 02:45:17;;;;;;;4.47;2.47;;;11.80;99.90;;;;;;5032162;28;20116;-65
2021/06/01 02:47:45;;;;;;;4.18;2.55;;;11.70;99.90;;;;;;5032573;28;20064;-65
2021/06/01 02:50:15;;;;;;;5.13;2.83;;;11.70;99.90;;;;;;5030823;28;20036;-65
2021/06/01 02:52:43;;;;;;;3.97;2.60;;;11.60;99.90;;;;;;5031260;28;20037;-65
2021/06/01 02:55:13;;;;;;;4.25;3.00;;;11.70;99.90;;;;;;5032122;28;20037;-65
2021/06/01 02:57:40;;;;;;;3.30;2.10;;;11.60;99.90;;;;;;5031103;28;20096;-65
2021/06/01 03:00:11;;;;;;;5.43;3.00;;;11.70;99.90;;;;;;5032015;28;20041;-65
2021/06/01 03:02:37;;;;;;;4.63;2.88;;;11.70;99.90;;;;;;5030969;28;20109;-65
2021/06/01 03:05:04;;;;;;;4.10;2.53;;;11.80;99.90;;;;;;5031946;28;20152;-65
2021/06/01 03:07:31;;;;;;;5.63;2.83;;;11.80;99.90;;;;;;5031897;28;20591;-65
2021/06/01 03:09:56;;;;;;;4.32;2.72;;;11.80;99.90;;;;;;5030931;28;20041;-65
2021/06/01 03:12:38;;;;;;;4.25;2.70;;;11.70;99.90;;;;;;5030744;28;20033;-65
2021/06/01 03:15:07;;;;;;;5.10;2.47;;;11.70;99.90;;;;;;5031728;28;20060;-65
2021/06/01 03:17:32;;;;;;;8.32;2.45;;;11.60;99.90;;;;;;5032832;28;20040;-65
2021/06/01 03:19:58;;;;;;;4.55;2.58;;;11.70;99.90;;;;;;5035684;28;20400;-65
2021/06/01 03:22:24;;;;;;;7.13;3.17;;;11.80;99.90;;;;;;5034426;28;20520;-65
2021/06/01 03:24:49;;;;;;;4.88;2.60;;;11.50;99.90;;;;;;5035854;28;20033;-65
2021/06/01 03:27:15;;;;;;;3.50;2.38;;;11.50;99.90;;;;;;5035773;28;20033;-65
2021/06/01 03:29:41;;;;;;;3.15;2.33;;;11.40;99.90;;;;;;5034238;28;20401;-65
2021/06/01 03:32:07;;;;;;;4.22;2.90;;;11.50;99.90;;;;;;5035474;28;20042;-65
2021/06/01 03:34:33;;;;;;;6.25;2.70;;;11.50;99.90;;;;;;5035338;28;20033;-65
2021/06/01 03:36:59;;;;;;;3.72;2.60;;;11.50;99.90;;;;;;5034183;28;20065;-65
2021/06/01 03:39:27;;;;;;;4.05;2.53;;;11.30;99.90;;;;;;5035373;28;20454;-65
2021/06/01 03:41:53;;;;;;;3.85;2.60;;;11.30;99.90;;;;;;5035127;28;20021;-65
2021/06/01 03:44:19;;;;;;;6.18;2.80;;;11.30;99.90;;;;;;5034279;28;20036;-65
2021/06/01 03:46:45;;;;;;;5.93;2.78;;;11.20;99.90;;;;;;5034812;28;20112;-66
2021/06/01 03:49:11;;;;;;;4.57;2.90;;;11.20;99.90;;;;;;5049639;28;20029;-66
2021/06/01 03:51:37;;;;;;;3.95;2.90;;;11.20;99.90;;;;;;5033631;28;20112;-66
2021/06/01 03:54:04;;;;;;;4.20;2.80;;;11.20;99.90;;;;;;5033957;28;20025;-67
2021/06/01 03:56:29;;;;;;;6.07;2.75;;;11.10;99.90;;;;;;5037443;28;20045;-67
2021/06/01 03:58:55;;;;;;;5.20;2.78;;;11.30;99.90;;;;;;5035127;28;20037;-66
2021/06/01 04:01:21;;;;;;;4.93;2.67;;;11.30;99.90;;;;;;5034845;28;20030;-68
2021/06/01 04:03:47;;;;;;;4.68;3.15;;;11.30;99.90;;;;;;5034596;28;20030;-67
2021/06/01 04:06:13;;;;;;;7.03;2.85;;;11.30;99.90;;;;;;5033461;28;20524;-70
2021/06/01 04:08:40;;;;;;;4.28;2.63;;;11.40;99.90;;;;;;5034868;28;20442;-67
2021/06/01 04:11:07;;;;;;;5.20;2.63;;;11.50;99.90;;;;;;5033507;28;20486;-66
2021/06/01 04:13:33;;;;;;;4.00;2.75;;;11.50;99.90;;;;;;5033559;28;20033;-66
2021/06/01 04:15:59;;;;;;;8.45;3.10;;;11.60;99.90;;;;;;5034603;28;20033;-66
2021/06/01 04:18:25;;;;;;;4.47;2.80;;;11.40;99.90;;;;;;5042562;28;20358;-65
2021/06/01 04:20:51;;;;;;;4.22;2.80;;;11.50;99.90;;;;;;5054540;28;20043;-65
2021/06/01 04:23:17;;;;;;;5.30;2.65;;;11.50;99.90;;;;;;5053058;28;20037;-66
2021/06/01 04:25:44;;;;;;;4.32;2.53;;;11.50;99.90;;;;;;5053154;28;20477;-68
2021/06/01 04:28:10;;;;;;;5.07;2.80;;;11.60;99.90;;;;;;5053459;28;20412;-68
2021/06/01 04:30:36;;;;;;;4.65;2.70;;;11.70;99.90;;;;;;5054521;28;20512;-68
2021/06/01 04:33:02;;;;;;;7.43;3.20;;;11.80;99.90;;;;;;5036163;28;20107;-69
2021/06/01 04:35:28;;;;;;;6.80;2.72;;;12.00;99.90;;;;;;5053105;28;20116;-71
2021/06/01 04:37:54;;;;;;;4.07;2.60;;;12.20;99.90;;;;;;5052810;28;20115;-72
2021/06/01 04:40:20;;;;;;;5.47;2.88;;;12.20;99.90;;;;;;5053093;28;20045;-73
2021/06/01 04:42:47;;;;;;;6.85;2.50;;;12.30;99.90;;;;;;5054334;28;20036;-72
2021/06/01 04:45:16;;;;;;;4.85;2.53;;;12.30;99.90;;;;;;5054129;28;20469;-74
2021/06/01 04:47:45;;;;;;;6.40;2.35;;;12.40;99.90;;;;;;5050585;28;20069;-72
2021/06/01 04:50:11;;;;;;;4.57;2.30;;;12.60;99.90;;;;;;5034188;28;20030;-72
2021/06/01 04:52:38;;;;;;;4.97;3.00;;;12.70;99.90;;;;;;5016279;28;20087;-67
2021/06/01 04:55:07;;;;;;;3.78;2.33;;;12.70;99.90;;;;;;5016220;28;20490;-69
2021/06/01 04:57:32;;;;;;;4.68;2.70;;;12.80;99.90;;;;;;5016264;28;20108;-69
2021/06/01 04:59:58;;;;;;;4.38;2.50;;;12.90;99.90;;;;;;5033944;28;20125;-68
2021/06/01 05:02:24;;;;;;;5.38;2.35;;;13.00;99.90;;;;;;5033685;28;20033;-69
2021/06/01 05:04:49;;;;;;;4.90;2.50;;;13.00;99.90;;;;;;5033905;28;20122;-69
2021/06/01 05:07:15;;;;;;;4.43;2.58;;;13.10;99.90;;;;;;5033572;28;20512;-69
2021/06/01 05:09:41;;;;;;;3.28;2.22;;;13.20;99.90;;;;;;5032513;28;20034;-69
2021/06/01 05:12:07;;;;;;;4.88;2.47;;;13.30;99.90;;;;;;5033493;28;20394;-69
2021/06/01 05:14:33;;;;;;;5.65;2.22;;;13.30;99.90;;;;;;5032093;28;20044;-69
2021/06/01 05:16:59;;;;;;;3.53;2.38;;;13.30;99.90;;;;;;5033858;28;20029;-69
2021/06/01 05:19:25;;;;;;;4.65;2.45;;;13.50;99.90;;;;;;5032370;28;20044;-67
2021/06/01 05:21:51;;;;;;;4.38;2.55;;;13.60;99.90;;;;;;5048601;28;20386;-69
2021/06/01 05:24:17;;;;;;;3.65;2.47;;;13.60;99.90;;;;;;5033411;28;20045;-68
2021/06/01 05:26:43;;;;;;;4.90;2.05;;;13.70;99.90;;;;;;5048670;28;20382;-69
2021/06/01 05:29:09;;;;;;;5.60;2.70;;;13.80;99.90;;;;;;5048343;28;20045;-71
2021/06/01 05:31:54;;;;;;;4.72;2.38;;;13.80;99.90;;;;;;5048811;28;20029;-72
2021/06/01 05:34:23;;;;;;;3.50;2.10;;;13.90;99.90;;;;;;5032724;28;20037;-72
2021/06/01 05:36:51;;;;;;;4.28;2.20;;;14.00;99.90;;;;;;5033172;28;20132;-72
2021/06/01 05:39:17;;;;;;;28.27;16.55;;;14.20;99.90;;;;;;5032787;28;20393;-72
2021/06/01 05:41:43;;;;;;;5.32;3.40;;;14.30;99.90;;;;;;5032444;28;20113;-72
2021/06/01 05:44:09;;;;;;;34.28;20.42;;;14.30;99.90;;;;;;5033097;28;20436;-72
2021/06/01 05:46:35;;;;;;;14.95;8.57;;;14.40;99.90;;;;;;5033132;28;20038;-72
2021/06/01 05:49:02;;;;;;;4.60;2.10;;;14.50;99.90;;;;;;5046981;28;20384;-72
2021/06/01 05:51:35;;;;;;;2.85;1.98;;;14.50;99.90;;;;;;5051920;28;20032;-72
2021/06/01 05:54:05;;;;;;;5.82;1.80;;;14.60;99.90;;;;;;5036068;28;20033;-72
2021/06/01 05:56:32;;;;;;;7.40;2.05;;;14.70;99.90;;;;;;5049493;28;20507;-72
2021/06/01 05:58:58;;;;;;;3.15;1.70;;;14.80;99.90;;;;;;5051734;28;20037;-72
2021/06/01 06:01:23;;;;;;;3.75;1.88;;;14.90;99.90;;;;;;5051188;28;20029;-72
2021/06/01 06:03:49;;;;;;;7.00;2.00;;;15.10;99.90;;;;;;5051320;28;20037;-72
2021/06/01 06:06:15;;;;;;;4.97;1.95;;;15.30;99.90;;;;;;5052711;28;20037;-72
2021/06/01 06:08:42;;;;;;;6.80;2.22;;;15.50;99.90;;;;;;5052680;28;20036;-72
2021/06/01 06:11:08;;;;;;;4.60;1.77;;;15.60;99.90;;;;;;5051304;28;20036;-72
2021/06/01 06:13:36;;;;;;;6.80;1.63;;;15.70;99.80;;;;;;5052400;28;20115;-72
2021/06/01 06:16:02;;;;;;;10.02;2.15;;;15.80;99.90;;;;;;5051046;28;20029;-72
2021/06/01 06:18:47;;;;;;;10.65;1.90;;;15.90;99.50;;;;;;5042643;28;20072;-72
2021/06/01 06:21:13;;;;;;;6.78;2.00;;;16.00;99.60;;;;;;5031268;28;20474;-72
2021/06/01 06:23:42;;;;;;;4.28;1.67;;;16.10;99.10;;;;;;5014611;28;20040;-72
2021/06/01 06:26:09;;;;;;;5.65;1.90;;;16.20;99.30;;;;;;5032266;28;20037;-72
2021/06/01 06:28:36;;;;;;;4.43;2.10;;;16.30;98.70;;;;;;5030708;28;20119;-72
2021/06/01 06:31:03;;;;;;;5.88;1.95;;;16.40;98.40;;;;;;5032563;28;20033;-72
2021/06/01 06:33:28;;;;;;;3.88;2.00;;;16.60;98.20;;;;;;5031708;28;20069;-72
2021/06/01 06:35:55;;;;;;;7.15;1.88;;;16.70;97.80;;;;;;5032174;28;20107;-73
2021/06/01 06:38:21;;;;;;;5.00;2.30;;;16.80;97.50;;;;;;5032093;28;20037;-71
2021/06/01 06:43:36;;;;;;;4.20;1.80;;;17.10;97.30;;;;;;5031466;28;20040;-71
2021/06/01 06:46:02;;;;;;;6.25;1.70;;;17.20;97.30;;;;;;5032175;28;20025;-70
2021/06/01 06:48:28;;;;;;;2.83;1.60;;;17.30;97.00;;;;;;5030589;28;20029;-72
2021/06/01 06:50:54;;;;;;;5.45;2.05;;;17.50;96.60;;;;;;5014345;28;20034;-72
2021/06/01 06:53:20;;;;;;;2.40;1.50;;;17.60;95.80;;;;;;5035685;28;20083;-72
2021/06/01 06:55:45;;;;;;;4.88;1.80;;;17.60;95.70;;;;;;5036072;28;20076;-71
2021/06/01 06:58:11;;;;;;;5.20;1.80;;;17.70;95.60;;;;;;5036151;28;20469;-72
2021/06/01 07:00:37;;;;;;;5.40;2.00;;;17.80;95.50;;;;;;5051411;28;20469;-72
2021/06/01 07:03:03;;;;;;;4.03;2.15;;;17.90;95.10;;;;;;5035845;28;20065;-70
2021/06/01 07:05:30;;;;;;;8.85;3.22;;;17.90;94.40;;;;;;5035717;28;20033;-70
2021/06/01 07:07:56;;;;;;;6.60;2.60;;;17.90;94.10;;;;;;5034614;28;20072;-70
2021/06/01 07:10:22;;;;;;;7.43;2.70;;;18.00;93.50;;;;;;5035671;28;20544;-70
2021/06/01 07:12:49;;;;;;;3.65;2.20;;;18.10;93.70;;;;;;5017927;28;20038;-70
2021/06/01 07:15:14;;;;;;;4.85;1.80;;;18.20;92.40;;;;;;5035766;28;20037;-71
2021/06/01 07:17:47;;;;;;;3.67;1.85;;;18.30;91.60;;;;;;5035668;28;20037;-71
2021/06/01 07:20:15;;;;;;;4.68;2.10;;;18.30;91.00;;;;;;5050187;28;20057;-71
2021/06/01 07:22:41;;;;;;;2.38;1.50;;;18.40;91.00;;;;;;5035611;28;20033;-70
2021/06/01 07:25:08;;;;;;;2.28;1.38;;;18.40;90.50;;;;;;5035439;28;20370;-70
2021/06/01 07:27:34;;;;;;;4.35;1.55;;;18.50;91.40;;;;;;5050772;28;20060;-71
2021/06/01 07:30:00;;;;;;;2.42;1.50;;;18.60;90.00;;;;;;5035628;28;20026;-70
2021/06/01 07:32:26;;;;;;;5.15;1.60;;;18.60;87.70;;;;;;5035405;28;20620;-70
2021/06/01 07:34:52;;;;;;;2.00;1.13;;;18.70;88.00;;;;;;5035239;28;20159;-71
2021/06/01 07:37:18;;;;;;;3.50;1.20;;;18.90;84.00;;;;;;5050527;28;20113;-70
2021/06/01 07:39:44;;;;;;;1.83;1.20;;;18.90;82.70;;;;;;5035654;28;20470;-70
2021/06/01 07:42:10;;;;;;;1.92;1.17;;;18.90;83.10;;;;;;5034759;28;20477;-71
2021/06/01 07:44:36;;;;;;;2.78;1.23;;;18.90;84.00;;;;;;5035278;28;20045;-69
2021/06/01 07:47:02;;;;;;;2.50;1.35;;;19.00;82.70;;;;;;5050641;28;20030;-71
2021/06/01 07:49:28;;;;;;;2.42;1.30;;;19.00;81.60;;;;;;5015562;28;20030;-69
2021/06/01 07:51:54;;;;;;;2.30;1.30;;;19.00;82.50;;;;;;5030020;28;20030;-71
2021/06/01 07:54:20;;;;;;;2.53;1.35;;;19.00;82.30;;;;;;5014959;28;20042;-71
2021/06/01 07:56:46;;;;;;;2.75;1.35;;;19.20;83.60;;;;;;5015180;28;20030;-71
2021/06/01 07:59:12;;;;;;;2.08;1.38;;;19.20;80.90;;;;;;5030252;28;20049;-68
2021/06/01 08:01:39;;;;;;;2.72;1.38;;;19.40;83.90;;;;;;5030507;28;20033;-71
2021/06/01 08:04:05;;;;;;;2.78;1.38;;;19.70;82.80;;;;;;5054046;28;20033;-71
2021/06/01 08:06:36;;;;;;;3.20;1.33;;;19.80;79.00;;;;;;5054558;28;20025;-71
2021/06/01 08:09:06;;;;;;;;;;;19.80;77.60;;;;;;5070719;28;20036;-71
2021/06/01 08:11:35;;;;;;;2.50;1.65;;;19.80;75.50;;;;;;5069872;28;19915;-71
2021/06/01 08:14:01;;;;;;;3.80;1.42;;;19.80;76.20;;;;;;5055085;28;20115;-71
2021/06/01 08:16:28;;;;;;;2.10;1.48;;;19.70;74.80;;;;;;5053601;28;20120;-71
2021/06/01 08:21:43;;;;;;;2.15;1.23;;;19.90;74.00;;;;;;5033212;28;20036;-71
2021/06/01 08:24:09;;;;;;;3.40;1.20;;;20.00;72.30;;;;;;5033566;28;20041;-71
2021/06/01 08:26:35;;;;;;;3.67;1.40;;;20.00;73.00;;;;;;5016644;28;20072;-71
2021/06/01 08:29:01;;;;;;;4.28;1.33;;;20.10;71.90;;;;;;5034392;28;20049;-70
2021/06/01 08:31:27;;;;;;;1.67;1.27;;;20.10;72.00;;;;;;5034473;28;20021;-70
2021/06/01 08:33:53;;;;;;;1.40;1.13;;;20.10;70.10;;;;;;5033212;28;20038;-69
2021/06/01 08:36:19;;;;;;;4.10;1.50;;;20.20;72.10;;;;;;5033979;28;20032;-69
2021/06/01 08:38:45;;;;;;;2.63;1.40;;;20.20;72.60;;;;;;5034540;28;20547;-69
2021/06/01 08:41:16;;;;;;;2.00;1.30;;;20.20;71.40;;;;;;5032925;28;20055;-69
2021/06/01 08:43:43;;;;;;;2.40;1.40;;;20.20;71.90;;;;;;5033306;28;20040;-69
2021/06/01 08:46:10;;;;;;;4.63;1.40;;;20.30;73.50;;;;;;5016372;28;20038;-69
2021/06/01 08:48:37;;;;;;;2.65;1.40;;;20.30;70.60;;;;;;5044679;28;20092;-68
2021/06/01 08:51:06;;;;;;;3.05;1.40;;;20.40;71.90;;;;;;5053964;28;20133;-69
2021/06/01 08:53:36;;;;;;;3.00;1.38;;;20.30;69.90;;;;;;5052509;28;20033;-68
2021/06/01 08:56:03;;;;;;;2.67;1.40;;;20.30;71.40;;;;;;5052936;28;20041;-69
2021/06/01 08:58:30;;;;;;;2.70;1.50;;;20.60;71.00;;;;;;5053698;28;20107;-70
2021/06/01 09:00:55;;;;;;;1.83;1.10;;;20.80;68.10;;;;;;5052834;28;20044;-70
2021/06/01 09:03:24;;;;;;;2.05;1.30;;;20.80;67.90;;;;;;5053678;28;20029;-70
2021/06/01 09:22:53;;;;;;;3.92;1.33;;;21.00;66.20;;;;;;5013490;28;20148;-69
2021/06/01 09:25:46;;;;;;;3.00;1.40;;;21.00;67.10;;;;;;5013429;28;20486;-69
2021/06/01 09:28:16;;;;;;;2.50;1.30;;;21.20;66.10;;;;;;5028477;28;20046;-69
2021/06/01 09:30:54;;;;;;;2.10;1.20;;;21.50;65.20;;;;;;5013519;28;20036;-70
2021/06/01 09:33:19;;;;;;;2.88;1.30;;;21.80;63.00;;;;;;5013203;28;20034;-70
2021/06/01 09:36:03;;;;;;;2.40;1.13;;;21.70;62.70;;;;;;5013277;28;20034;-70
2021/06/01 09:38:36;;;;;;;2.65;1.25;;;21.70;64.60;;;;;;5028447;28;20173;-74
2021/06/01 09:41:07;;;;;;;1.73;1.23;;;21.70;64.50;;;;;;5028411;28;20056;-72
2021/06/01 09:43:59;;;;;;;2.42;1.35;;;22.00;65.00;;;;;;5027772;28;20105;-74
2021/06/01 09:46:29;;;;;;;3.67;1.50;;;21.70;62.20;;;;;;5013133;28;20096;-69
2021/06/01 09:49:15;;;;;;;2.30;1.20;;;21.70;64.80;;;;;;5026333;28;20041;-72
2021/06/01 09:51:49;;;;;;;3.20;1.70;;;21.90;63.70;;;;;;5032373;28;20132;-74
2021/06/01 09:54:38;;;;;;;2.03;1.15;;;22.00;62.10;;;;;;5047443;28;20041;-77
2021/06/01 09:57:27;;;;;;;2.58;1.25;;;22.10;63.00;;;;;;5032880;28;20037;-61
2021/06/01 10:00:24;;;;;;;4.97;1.48;;;22.30;62.10;;;;;;5035186;28;20092;-61
2021/06/01 10:03:03;;;;;;;2.47;1.40;;;22.50;61.40;;;;;;5032906;28;20497;-60
2021/06/01 10:05:38;;;;;;;11.90;2.80;;;22.70;60.70;;;;;;5032510;28;20034;-71
2021/06/01 10:08:14;;;;;;;3.30;1.33;;;22.90;61.60;;;;;;5031330;28;20029;-72
2021/06/01 10:10:49;;;;;;;2.70;1.42;;;22.60;59.00;;;;;;5032735;28;20041;-72
2021/06/01 10:13:15;;;;;;;14.00;2.30;;;22.70;59.50;;;;;;5016284;28;20082;-72
2021/06/01 10:15:41;;;;;;;9.18;1.98;;;22.90;61.40;;;;;;5032320;28;20033;-72
2021/06/01 10:18:10;;;;;;;12.63;2.38;;;22.90;62.20;;;;;;5037966;28;20033;-72
2021/06/01 10:20:38;;;;;;;4.82;1.50;;;23.20;61.40;;;;;;5052278;28;20033;-72
2021/06/01 10:23:07;;;;;;;2.33;1.35;;;23.30;61.20;;;;;;5052319;28;20029;-71
2021/06/01 10:25:35;;;;;;;2.13;1.02;;;23.70;59.50;;;;;;5051917;28;20047;-72
2021/06/01 10:28:04;;;;;;;2.60;1.30;;;23.60;59.80;;;;;;5051800;28;20075;-72
2021/06/01 10:30:33;;;;;;;2.28;1.33;;;23.80;59.20;;;;;;5050939;28;20063;-72
2021/06/01 10:33:10;;;;;;;2.60;1.70;;;23.90;58.60;;;;;;5050992;28;20108;-72
2021/06/01 10:35:44;;;;;;;3.15;1.75;;;23.70;59.50;;;;;;5051157;28;20029;-72
2021/06/01 10:44:33;;;;;;;2.70;1.23;;;23.70;57.60;;;;;;5051959;28;20397;-72
2021/06/01 10:50:21;;;;;;;13.48;2.40;;;24.20;56.20;;;;;;5012376;28;20062;-72
2021/06/01 10:53:20;;;;;;;10.20;2.03;;;23.60;55.80;;;;;;4999011;28;20566;-72
2021/06/01 10:55:48;;;;;;;6.95;2.38;;;23.50;57.90;;;;;;5012387;28;20034;-72
2021/06/01 10:58:21;;;;;;;1.98;1.15;;;23.80;57.80;;;;;;5012247;28;20030;-72
2021/06/01 11:03:18;;;;;;;2.20;1.40;;;24.10;56.50;;;;;;5012481;28;20034;-73
2021/06/01 11:05:57;;;;;;;2.03;1.27;;;24.10;55.20;;;;;;5011917;28;20036;-73
2021/06/01 11:08:44;;;;;;;3.25;1.33;;;24.50;56.00;;;;;;5012046;28;20398;-71
2021/06/01 11:11:22;;;;;;;2.42;1.33;;;24.20;54.50;;;;;;5011342;28;20046;-71
2021/06/01 11:13:53;;;;;;;1.83;1.17;;;24.50;56.20;;;;;;5012294;28;20176;-72
2021/06/01 11:16:19;;;;;;;2.28;1.38;;;24.40;56.20;;;;;;5012135;28;20109;-72
2021/06/01 11:18:54;;;;;;;2.95;1.20;;;24.10;57.30;;;;;;5035630;28;20037;-72
2021/06/01 11:21:38;;;;;;;2.25;1.00;;;24.40;58.00;;;;;;5051047;28;20116;-72
2021/06/01 11:35:22;;;;;;;1.55;1.13;;;24.90;56.90;;;;;;5051772;28;20033;-72
2021/06/01 11:43:05;;;;;;;2.30;1.20;;;25.50;54.10;;;;;;5055311;28;20036;-72
2021/06/01 11:51:12;;;;;;;2.97;1.30;;;25.10;57.90;;;;;;5035386;28;20037;-73
2021/06/01 11:54:02;;;;;;;1.90;1.30;;;25.20;54.00;;;;;;5033720;28;20316;-73
2021/06/01 11:56:52;;;;;;;;;;;25.30;55.20;;;;;;5035127;28;20033;-72
2021/06/01 12:18:54;;;;;;;3.85;1.45;;;25.90;53.00;;;;;;5014650;28;20081;-72
2021/06/01 12:21:35;;;;;;;2.10;1.20;;;25.50;52.30;;;;;;5033346;28;20029;-71
2021/06/01 12:24:07;;;;;;;4.93;1.13;;;26.00;53.60;;;;;;5034526;28;20490;-72
2021/06/01 12:32:23;;;;;;;2.17;1.15;;;26.30;50.70;;;;;;5034688;28;20037;-72
2021/06/01 12:43:50;;;;;;;2.25;1.23;;;26.00;51.40;;;;;;5033919;28;20037;-71
2021/06/01 12:46:58;;;;;;;2.45;1.25;;;26.10;52.90;;;;;;5033091;28;20033;-71
2021/06/01 13:47:22;;;;;;;2.38;1.15;;;28.00;48.60;;;;;;5013241;28;20418;-70
2021/06/01 13:50:01;;;;;;;1.98;1.10;;;28.00;49.50;;;;;;4995353;28;20057;-71
2021/06/01 14:36:08;;;;;;;1.77;1.10;;;29.60;42.80;;;;;;5038436;28;20235;-71
2021/06/01 15:53:45;;;;;;;2.22;1.13;;;29.90;41.30;;;;;;5031329;28;20037;-71
2021/06/01 16:29:45;;;;;;;2.78;1.30;;;29.70;42.10;;;;;;5034182;28;20267;-59
2021/06/01 16:32:25;;;;;;;2.13;1.40;;;29.20;42.30;;;;;;5033228;28;20041;-59
2021/06/01 16:43:32;;;;;;;4.43;1.63;;;29.40;41.90;;;;;;5034176;28;20040;-56
2021/06/01 17:08:19;;;;;;;2.15;1.17;;;29.40;41.60;;;;;;5033560;28;20029;-66
2021/06/01 17:13:49;;;;;;;2.42;1.15;;;30.60;40.50;;;;;;5032321;28;20475;-64
2021/06/01 17:16:33;;;;;;;3.20;1.23;;;29.90;41.30;;;;;;5033913;28;20042;-66
2021/06/01 17:19:24;;;;;;;2.28;1.20;;;29.90;43.10;;;;;;5028416;28;20112;-66
2021/06/01 17:35:40;;;;;;;2.45;1.30;;;28.60;42.00;;;;;;5052938;28;20127;-64
2021/06/01 17:38:08;;;;;;;1.67;1.00;;;29.30;42.40;;;;;;5052969;28;20064;-65
2021/06/01 17:40:36;;;;;;;2.05;1.20;;;29.00;41.30;;;;;;5051916;28;20029;-66
2021/06/01 17:43:05;;;;;;;3.22;1.40;;;28.50;41.80;;;;;;5052723;28;20025;-69
2021/06/01 17:45:36;;;;;;;4.73;1.40;;;28.00;42.10;;;;;;5053011;28;20047;-69
2021/06/01 17:48:06;;;;;;;2.15;1.27;;;27.90;41.60;;;;;;5045245;28;20048;-66
2021/06/01 17:50:35;;;;;;;2.13;1.15;;;27.90;42.10;;;;;;5031231;28;20120;-66
2021/06/01 17:53:03;;;;;;;1.88;1.13;;;27.90;42.10;;;;;;5031750;28;20041;-66
2021/06/01 17:55:31;;;;;;;3.90;1.35;;;28.20;42.10;;;;;;5031151;28;20029;-66
2021/06/01 17:57:59;;;;;;;3.65;1.40;;;28.20;42.20;;;;;;5033983;28;20094;-65
2021/06/01 18:00:29;;;;;;;2.33;1.20;;;28.70;42.60;;;;;;5050313;28;20035;-66
2021/06/01 18:02:55;;;;;;;2.78;1.20;;;29.10;41.80;;;;;;5052836;28;20025;-66
2021/06/01 18:05:25;;;;;;;19.95;1.67;;;28.50;41.90;;;;;;5051441;28;20473;-66
2021/06/01 18:08:17;;;;;;;3.40;1.70;;;28.80;42.40;;;;;;5052430;28;20551;-66
2021/06/01 18:41:41;;;;;;;4.10;1.30;;;28.30;43.30;;;;;;5055769;28;20421;-67
2021/06/01 19:24:39;;;;;;;3.08;1.50;;;23.70;51.20;;;;;;5031308;28;20045;-65
2021/06/01 19:50:13;;;;;;;5.03;2.03;;;22.50;55.40;;;;;;5030472;28;20037;-63
2021/06/01 19:52:46;;;;;;;3.47;1.70;;;22.30;56.30;;;;;;5031628;28;20029;-62
2021/06/01 19:55:13;;;;;;;4.78;2.45;;;22.10;56.80;;;;;;5030707;28;20481;-63
2021/06/01 19:57:40;;;;;;;5.22;2.17;;;22.10;56.60;;;;;;5031275;28;20060;-63
2021/06/01 20:00:09;;;;;;;4.25;1.90;;;22.00;56.80;;;;;;5032544;28;20124;-63
2021/06/01 20:02:35;;;;;;;3.35;1.45;;;22.00;56.50;;;;;;5035262;28;20123;-63
2021/06/01 20:05:06;;;;;;;5.50;2.13;;;21.70;56.90;;;;;;5034954;28;20325;-63
2021/06/01 20:07:31;;;;;;;15.38;8.95;;;21.80;57.20;;;;;;5034893;28;20056;-63
2021/06/01 20:09:59;;;;;;;27.92;17.13;;;21.80;56.70;;;;;;5033809;28;20069;-63
2021/06/01 20:12:26;;;;;;;6.47;3.10;;;21.80;59.90;;;;;;5034844;28;20061;-63
2021/06/01 20:14:53;;;;;;;4.15;1.95;;;21.70;58.20;;;;;;5034626;28;20064;-64
2021/06/01 20:17:33;;;;;;;3.40;1.92;;;21.70;58.40;;;;;;5033406;28;20029;-63
2021/06/01 20:20:06;;;;;;;4.30;2.07;;;21.60;58.40;;;;;;5034740;28;20030;-64
2021/06/01 20:22:36;;;;;;;4.57;1.63;;;21.40;58.80;;;;;;5034344;28;20033;-63
2021/06/01 20:25:05;;;;;;;3.53;1.80;;;21.40;59.30;;;;;;5032151;28;20033;-64
2021/06/01 20:27:33;;;;;;;4.18;1.83;;;21.30;59.00;;;;;;5032732;28;20103;-64